Time;durP1;ratioP1;P1;durP2;ratioP2;P2;SDS_P1;SDS_P2;PMS_P1;PMS_P2;Temp;Humidity;BMP_temperature;BMP_pressure;BME280_temperature;BME280_humidity;BME280_pressure;Samples;Min_cycle;Max_cycle;Signal;HPM_P1;HPM_P2
2021/09/08 00:01:19;;;;;;;27.77;18.83;;;;;;;18.17;72.43;102095.44;4885466;29;20440;-89
2021/09/08 00:03:44;;;;;;;30.25;19.08;;;;;;;18.18;72.53;102099.00;4867936;29;20066;-87
2021/09/08 00:06:10;;;;;;;28.00;18.45;;;;;;;18.15;72.29;102099.19;4884273;29;20077;-86
2021/09/08 00:08:37;;;;;;;26.20;18.77;;;;;;;18.13;72.81;102095.75;4868469;29;20039;-85
2021/09/08 00:11:03;;;;;;;27.63;17.55;;;;;;;18.11;72.49;102097.63;4869826;29;20473;-87
2021/09/08 00:13:29;;;;;;;25.63;17.95;;;;;;;18.10;72.63;102088.75;4886279;29;20057;-85
2021/09/08 00:15:55;;;;;;;27.52;18.60;;;;;;;18.06;73.02;102088.09;4870305;29;20047;-86
2021/09/08 00:18:22;;;;;;;27.80;18.45;;;;;;;17.99;73.32;102085.91;4884629;29;20047;-87
2021/09/08 00:20:49;;;;;;;29.02;19.95;;;;;;;17.91;73.19;102083.72;4839358;29;20151;-87
2021/09/08 00:23:15;;;;;;;28.38;19.08;;;;;;;17.91;73.72;102071.22;4854885;29;20053;-86
2021/09/08 00:25:42;;;;;;;30.13;20.90;;;;;;;17.89;74.31;102078.47;4871443;29;20033;-87
2021/09/08 00:28:11;;;;;;;27.95;19.20;;;;;;;17.90;73.79;102071.31;4855855;29;20044;-86
2021/09/08 00:30:36;;;;;;;29.80;19.08;;;;;;;17.88;73.95;102071.41;4888216;29;20400;-87
2021/09/08 00:33:05;;;;;;;28.98;19.45;;;;;;;17.89;73.84;102073.13;4888761;29;20053;-87
2021/09/08 00:35:31;;;;;;;30.23;19.20;;;;;;;17.87;73.49;102072.38;4902145;23;20077;-85
2021/09/08 00:37:58;;;;;;;29.30;18.55;;;;;;;17.85;73.41;102079.66;4886345;29;20045;-84
2021/09/08 00:40:24;;;;;;;26.77;18.77;;;;;;;17.83;73.44;102061.97;4885681;29;20045;-87
2021/09/08 00:42:51;;;;;;;29.15;19.23;;;;;;;17.79;73.47;102064.84;4902019;29;20029;-87
2021/09/08 00:45:18;;;;;;;29.70;19.50;;;;;;;17.80;73.93;102063.91;4903848;29;20073;-89
2021/09/08 00:47:44;;;;;;;30.08;21.70;;;;;;;17.84;73.97;102061.03;4875546;29;20067;-86
2021/09/08 00:50:10;;;;;;;26.35;18.35;;;;;;;17.85;73.80;102057.38;4906593;29;20131;-87
2021/09/08 00:52:37;;;;;;;32.33;19.73;;;;;;;17.83;73.94;102044.09;4868391;29;20037;-88
2021/09/08 00:55:04;;;;;;;29.35;19.48;;;;;;;17.80;73.64;102041.63;4887299;29;20037;-86
2021/09/08 00:57:30;;;;;;;27.33;19.33;;;;;;;17.76;73.67;102042.78;4888802;29;20036;-86
2021/09/08 00:59:56;;;;;;;29.05;19.88;;;;;;;17.74;74.34;102036.66;4907638;29;20048;-87
2021/09/08 01:02:21;;;;;;;29.77;19.63;;;;;;;17.73;74.44;102040.31;4901859;29;20043;-86
2021/09/08 01:04:48;;;;;;;32.03;21.30;;;;;;;17.74;74.19;102039.34;4902522;29;20028;-88
2021/09/08 01:07:14;;;;;;;31.52;20.17;;;;;;;17.72;74.11;102047.47;4873166;29;20104;-87
2021/09/08 01:09:39;;;;;;;29.13;20.20;;;;;;;17.67;74.28;102038.88;4902671;29;20072;-87
2021/09/08 01:12:06;;;;;;;32.30;20.77;;;;;;;17.66;74.39;102035.34;4874358;29;20024;-87
2021/09/08 01:14:31;;;;;;;30.73;19.98;;;;;;;17.62;74.05;102035.66;4908717;29;20045;-85
2021/09/08 01:16:58;;;;;;;29.23;19.65;;;;;;;17.58;74.15;102026.09;4924808;29;20036;-86
2021/09/08 01:19:27;;;;;;;33.03;22.67;;;;;;;17.55;74.74;102029.84;4893095;29;20069;-87
2021/09/08 01:21:52;;;;;;;32.45;21.17;;;;;;;17.53;74.42;102026.38;4908362;29;20047;-87
2021/09/08 01:24:18;;;;;;;32.85;21.08;;;;;;;17.50;74.77;102019.44;4892878;29;20029;-87
2021/09/08 01:26:46;;;;;;;35.67;22.13;;;;;;;17.48;74.97;102032.03;4924451;29;20051;-87
2021/09/08 01:29:13;;;;;;;31.65;22.40;;;;;;;17.47;75.25;102026.78;4924583;29;20021;-87
2021/09/08 01:31:39;;;;;;;32.75;21.75;;;;;;;17.45;74.91;102023.38;4924190;29;20080;-85
2021/09/08 01:34:06;;;;;;;32.97;22.15;;;;;;;17.43;75.34;102026.13;4915848;29;20052;-85
2021/09/08 01:36:39;;;;;;;31.88;21.27;;;;;;;17.40;75.02;102029.00;4910548;29;20055;-84
2021/09/08 01:39:06;;;;;;;34.28;21.35;;;;;;;17.38;75.11;102031.78;4907670;29;20067;-85
2021/09/08 01:41:32;;;;;;;28.70;20.35;;;;;;;17.35;74.62;102033.78;4923646;29;20040;-84
2021/09/08 01:43:59;;;;;;;29.83;19.25;;;;;;;17.31;74.41;102033.09;4894743;29;20032;-85
2021/09/08 01:46:25;;;;;;;27.73;19.38;;;;;;;17.28;74.33;102027.94;4909991;29;20033;-87
2021/09/08 01:48:51;;;;;;;28.60;19.05;;;;;;;17.21;74.35;102030.13;4921844;29;20028;-86
2021/09/08 01:51:16;;;;;;;27.98;18.35;;;;;;;17.17;74.27;102024.16;4914899;29;20071;-88
2021/09/08 01:53:42;;;;;;;27.92;18.63;;;;;;;17.16;74.74;102022.41;4894405;29;20064;-87
2021/09/08 01:56:08;;;;;;;31.05;19.40;;;;;;;17.14;74.80;102021.66;4901926;29;20047;-86
2021/09/08 01:58:36;;;;;;;27.90;19.77;;;;;;;17.11;74.54;102016.50;4894810;29;20039;-85
2021/09/08 02:01:03;;;;;;;27.90;18.73;;;;;;;17.09;74.68;102018.41;4877193;29;20388;-88
2021/09/08 02:03:28;;;;;;;30.48;20.25;;;;;;;17.05;74.66;102015.03;4917337;29;20021;-89
2021/09/08 02:05:55;;;;;;;29.35;19.67;;;;;;;17.01;74.47;102018.84;4862790;29;20039;-86
2021/09/08 02:08:23;;;;;;;30.00;19.77;;;;;;;16.97;74.84;102014.66;4893013;29;20041;-88
2021/09/08 02:10:49;;;;;;;29.73;19.08;;;;;;;16.96;74.55;102018.25;4879504;29;20024;-86
2021/09/08 02:13:17;;;;;;;28.02;19.35;;;;;;;16.91;74.56;102021.22;4915540;29;20080;-86
2021/09/08 02:15:44;;;;;;;30.10;20.05;;;;;;;16.89;74.63;102024.94;4895893;29;20045;-84
2021/09/08 02:18:09;;;;;;;28.17;18.83;;;;;;;16.86;74.70;102027.81;4899071;29;20048;-87
2021/09/08 02:20:36;;;;;;;26.83;19.13;;;;;;;16.82;74.61;102016.44;4923526;29;20023;-86
2021/09/08 02:23:03;;;;;;;24.83;16.70;;;;;;;16.81;74.13;102015.59;4907082;29;20037;-86
2021/09/08 02:25:30;;;;;;;26.17;18.75;;;;;;;16.76;74.75;102014.16;4922757;29;20033;-85
2021/09/08 02:27:56;;;;;;;26.48;18.67;;;;;;;16.78;74.87;102014.94;4905361;29;20033;-84
2021/09/08 02:30:22;;;;;;;28.70;18.70;;;;;;;16.77;74.50;102016.72;4903768;29;20028;-84
2021/09/08 02:32:48;;;;;;;28.50;18.33;;;;;;;16.77;74.45;102013.22;4921238;29;20080;-84
2021/09/08 02:35:14;;;;;;;25.58;17.95;;;;;;;16.75;74.51;102007.09;4904844;29;20024;-84
2021/09/08 02:37:39;;;;;;;25.42;16.92;;;;;;;16.75;74.39;102009.78;4881238;29;20077;-83
2021/09/08 02:40:05;;;;;;;26.30;16.80;;;;;;;16.71;74.35;101998.41;4878646;29;20048;-84
2021/09/08 02:42:34;;;;;;;27.63;18.40;;;;;;;16.66;74.78;102004.03;4910515;29;20079;-85
2021/09/08 02:45:01;;;;;;;31.27;17.83;;;;;;;16.65;74.52;101999.66;4910215;29;20037;-85
2021/09/08 02:47:28;;;;;;;27.23;18.70;;;;;;;16.61;74.77;101995.47;4909891;29;20041;-86
2021/09/08 02:49:54;;;;;;;27.10;17.33;;;;;;;16.59;74.31;101991.13;4891848;29;20468;-86
2021/09/08 02:52:20;;;;;;;28.42;17.55;;;;;;;16.57;74.77;101988.56;4910056;29;20084;-86
2021/09/08 02:54:45;;;;;;;26.52;18.10;;;;;;;16.58;74.67;101989.44;4909678;29;20021;-85
2021/09/08 02:57:12;;;;;;;26.58;18.23;;;;;;;16.56;74.68;101984.19;4908368;29;20055;-86
2021/09/08 02:59:38;;;;;;;32.63;20.35;;;;;;;16.54;75.28;101981.59;4891631;29;20037;-86
2021/09/08 03:02:03;;;;;;;33.60;20.60;;;;;;;16.56;75.57;101987.72;4908039;29;20029;-85
2021/09/08 03:04:29;;;;;;;28.60;19.15;;;;;;;16.57;75.60;101988.56;4907740;29;20038;-87
2021/09/08 03:06:56;;;;;;;28.63;18.85;;;;;;;16.60;75.29;101985.72;4875814;29;20041;-87
2021/09/08 03:09:21;;;;;;;31.52;20.55;;;;;;;16.62;75.96;101981.13;4875234;29;20024;-88
2021/09/08 03:11:47;;;;;;;27.13;19.20;;;;;;;16.63;75.43;101984.69;4890890;29;20491;-88
2021/09/08 03:14:18;;;;;;;29.40;18.85;;;;;;;16.61;75.37;101984.78;4875744;29;20052;-86
2021/09/08 03:16:51;;;;;;;30.85;19.50;;;;;;;16.61;75.43;101981.22;4917572;29;20029;-85
2021/09/08 03:19:52;;;;;;;27.38;18.13;;;;;;;16.60;75.19;101972.34;4886811;29;20029;-86
2021/09/08 03:22:20;;;;;;;26.25;18.05;;;;;;;16.60;75.35;101982.19;4910794;29;20456;-87
2021/09/08 03:24:46;;;;;;;29.20;18.95;;;;;;;16.57;75.82;101972.53;4874871;29;20021;-88
2021/09/08 03:27:12;;;;;;;24.80;17.23;;;;;;;16.56;75.36;101973.50;4906255;29;20043;-87
2021/09/08 03:29:38;;;;;;;29.10;18.77;;;;;;;16.53;75.25;101971.03;4906328;29;20037;-88
2021/09/08 03:32:03;;;;;;;30.02;19.55;;;;;;;16.52;75.76;101975.50;4890544;29;20088;-88
2021/09/08 03:34:29;;;;;;;28.58;18.45;;;;;;;16.53;75.22;101971.03;4908268;29;20036;-87
2021/09/08 03:36:57;;;;;;;31.30;19.83;;;;;;;16.51;75.98;101973.78;4906731;29;20041;-86
2021/09/08 03:39:23;;;;;;;31.33;20.92;;;;;;;16.50;75.87;101971.19;4906947;29;20341;-87
2021/09/08 03:41:49;;;;;;;30.42;20.67;;;;;;;16.48;75.85;101965.09;4890897;29;20472;-87
2021/09/08 03:44:15;;;;;;;29.60;19.67;;;;;;;16.48;75.94;101975.75;4907180;29;20035;-87
2021/09/08 03:46:40;;;;;;;32.53;20.90;;;;;;;16.47;76.06;101966.91;4905723;29;20032;-86
2021/09/08 03:49:07;;;;;;;31.52;20.50;;;;;;;16.53;76.44;101968.34;4906710;29;20036;-87
2021/09/08 03:51:32;;;;;;;33.20;20.10;;;;;;;16.51;75.93;101960.44;4891584;29;20077;-86
2021/09/08 03:54:01;;;;;;;29.20;18.60;;;;;;;16.49;75.41;101957.00;4889041;29;20025;-87
2021/09/08 03:56:26;;;;;;;30.48;21.17;;;;;;;16.48;76.25;101955.28;4888529;29;20067;-86
2021/09/08 03:58:53;;;;;;;31.35;19.73;;;;;;;16.48;75.90;101952.59;4905692;29;20116;-88
2021/09/08 04:01:19;;;;;;;30.98;20.10;;;;;;;16.43;76.10;101958.22;4905816;29;20096;-86
2021/09/08 04:03:48;;;;;;;33.03;21.92;;;;;;;16.44;76.38;101957.25;4873486;29;20032;-86
2021/09/08 04:06:14;;;;;;;30.25;20.02;;;;;;;16.45;76.33;101958.13;4889474;29;20092;-86
2021/09/08 04:08:40;;;;;;;31.05;19.58;;;;;;;16.46;76.20;101961.66;4889900;29;20048;-87
2021/09/08 04:11:06;;;;;;;31.42;19.98;;;;;;;16.42;75.92;101961.84;4910187;29;20028;-86
2021/09/08 04:13:31;;;;;;;35.53;22.42;;;;;;;16.39;76.11;101956.72;4893763;29;20373;-87
2021/09/08 04:15:58;;;;;;;32.67;20.80;;;;;;;16.38;75.96;101954.13;4909428;29;20048;-87
2021/09/08 04:18:23;;;;;;;35.63;21.02;;;;;;;16.37;76.17;101942.59;4893889;29;20397;-86
2021/09/08 04:20:49;;;;;;;35.75;21.58;;;;;;;16.38;76.24;101941.63;4911651;29;20606;-87
2021/09/08 04:23:15;;;;;;;34.38;22.15;;;;;;;16.39;76.41;101945.16;4913557;29;20047;-86
2021/09/08 04:25:41;;;;;;;34.08;22.58;;;;;;;16.38;76.32;101946.97;4897996;29;20079;-86
2021/09/08 04:28:07;;;;;;;32.05;20.30;;;;;;;16.37;75.85;101941.72;4894610;29;20055;-88
2021/09/08 04:30:32;;;;;;;32.25;21.15;;;;;;;16.38;75.97;101935.44;4893661;29;20032;-86
2021/09/08 04:32:58;;;;;;;32.03;20.73;;;;;;;16.39;76.18;101943.34;4892964;29;20028;-87
2021/09/08 04:35:28;;;;;;;28.77;19.70;;;;;;;16.40;75.87;101938.84;4897944;24;20049;-86
2021/09/08 04:37:53;;;;;;;33.05;19.27;;;;;;;16.41;76.14;101940.59;4855133;29;20041;-86
2021/09/08 04:40:22;;;;;;;29.98;19.75;;;;;;;16.41;75.81;101941.44;4840842;29;20078;-87
2021/09/08 04:42:50;;;;;;;28.80;18.90;;;;;;;16.41;75.60;101943.25;4840887;29;20613;-87
2021/09/08 04:45:16;;;;;;;29.17;18.98;;;;;;;16.38;75.46;101941.63;4840332;29;20030;-86
2021/09/08 04:47:41;;;;;;;33.72;21.45;;;;;;;16.37;75.68;101939.91;4855635;29;20021;-87
2021/09/08 04:50:51;;;;;;;30.48;19.67;;;;;;;16.38;75.62;101936.28;4812340;29;20048;-87
2021/09/08 04:53:22;;;;;;;28.88;18.90;;;;;;;16.38;75.56;101936.28;4806856;29;20098;-86
2021/09/08 04:55:49;;;;;;;30.02;20.08;;;;;;;16.35;75.87;101928.47;4819610;29;20608;-85
2021/09/08 04:58:39;;;;;;;30.77;20.65;;;;;;;16.37;76.14;101929.22;4808009;29;20050;-86
2021/09/08 05:01:10;;;;;;;30.20;19.27;;;;;;;16.38;75.78;101916.75;4754497;30;20101;-86
2021/09/08 05:03:35;;;;;;;29.88;18.33;;;;;;;16.35;75.85;101922.28;4745771;30;20101;-88
2021/09/08 05:06:03;;;;;;;34.67;20.63;;;;;;;16.32;76.12;101925.97;4760252;30;20127;-86
2021/09/08 05:08:28;;;;;;;28.92;19.65;;;;;;;16.34;75.99;101925.88;4759892;30;20495;-87
2021/09/08 05:11:01;;;;;;;30.00;18.67;;;;;;;16.37;75.82;101918.56;4767931;30;20211;-84
2021/09/08 05:13:41;;;;;;;32.03;20.73;;;;;;;16.37;75.81;101918.56;4753162;30;20036;-85
2021/09/08 05:16:25;;;;;;;28.80;19.35;;;;;;;16.40;75.77;101929.06;4747326;30;20040;-85
2021/09/08 05:18:51;;;;;;;33.45;20.63;;;;;;;16.40;76.15;101923.72;4754168;30;20051;-88
2021/09/08 05:21:16;;;;;;;31.50;19.15;;;;;;;16.43;75.80;101915.50;4755906;30;20036;-85
2021/09/08 05:23:42;;;;;;;33.03;21.15;;;;;;;16.45;75.88;101915.41;4752236;30;20480;-87
2021/09/08 05:26:07;;;;;;;30.27;19.98;;;;;;;16.47;75.61;101916.19;4737485;30;20051;-87
2021/09/08 05:28:33;;;;;;;31.73;20.55;;;;;;;16.49;75.23;101919.59;4757819;29;20054;-86
2021/09/08 05:30:58;;;;;;;32.33;21.08;;;;;;;16.51;75.47;101917.72;4808933;29;20038;-87
2021/09/08 05:33:24;;;;;;;31.88;20.00;;;;;;;16.54;75.23;101922.88;4846978;29;20042;-86
2021/09/08 05:35:49;;;;;;;31.90;20.50;;;;;;;16.57;75.42;101921.81;4847083;29;20117;-87
2021/09/08 05:38:15;;;;;;;34.38;19.95;;;;;;;16.63;75.22;101908.06;4850039;29;20056;-87
2021/09/08 05:40:40;;;;;;;31.95;20.15;;;;;;;16.68;75.06;101914.00;4866137;29;20033;-87
2021/09/08 05:43:06;;;;;;;30.13;20.40;;;;;;;16.74;75.20;101911.91;4862587;29;20074;-86
2021/09/08 05:45:31;;;;;;;30.02;18.95;;;;;;;16.81;74.59;101913.22;4863002;29;20049;-87
2021/09/08 05:47:57;;;;;;;28.00;18.92;;;;;;;16.87;74.48;101915.53;4846218;29;20033;-85
2021/09/08 05:50:22;;;;;;;27.27;18.92;;;;;;;16.96;74.45;101908.72;4845954;29;20033;-86
2021/09/08 05:52:48;;;;;;;34.42;20.58;;;;;;;17.29;73.33;101906.69;4862867;29;20030;-87
2021/09/08 05:55:13;;;;;;;25.83;18.30;;;;;;;17.50;72.07;101912.47;4862571;29;20029;-86
2021/09/08 05:57:38;;;;;;;29.48;19.67;;;;;;;17.56;71.79;101921.91;4861337;29;20036;-86
2021/09/08 06:00:05;;;;;;;31.20;19.52;;;;;;;17.60;71.56;101915.41;4818998;29;20092;-86
2021/09/08 06:02:30;;;;;;;28.90;18.70;;;;;;;17.58;71.69;101913.78;4849268;29;20548;-86
2021/09/08 06:04:55;;;;;;;27.33;18.48;;;;;;;17.60;71.91;101906.50;4870247;29;20076;-86
2021/09/08 06:07:21;;;;;;;28.73;18.65;;;;;;;17.53;72.18;101908.72;4844963;29;20037;-85
2021/09/08 06:09:49;;;;;;;27.40;19.15;;;;;;;17.54;72.33;101913.13;4862185;29;20048;-86
2021/09/08 06:12:14;;;;;;;27.95;18.58;;;;;;;17.59;72.12;101910.16;4873400;29;20037;-85
2021/09/08 06:14:40;;;;;;;27.58;18.73;;;;;;;17.65;72.07;101907.91;4849930;29;20044;-86
2021/09/08 06:17:06;;;;;;;27.88;19.08;;;;;;;17.73;72.12;101910.06;4846349;29;20029;-87
2021/09/08 06:19:33;;;;;;;28.50;19.25;;;;;;;17.78;71.64;101910.63;4863070;29;20030;-87
2021/09/08 06:21:59;;;;;;;27.35;18.63;;;;;;;17.81;71.62;101910.44;4831813;29;20060;-90
2021/09/08 06:24:24;;;;;;;27.42;19.20;;;;;;;17.92;71.31;101906.16;4830598;29;20041;-86
2021/09/08 06:26:50;;;;;;;27.95;19.30;;;;;;;17.87;71.40;101905.63;4845103;29;20034;-88
2021/09/08 06:29:16;;;;;;;27.88;18.88;;;;;;;18.03;70.87;101908.97;4861921;29;20040;-87
2021/09/08 06:31:42;;;;;;;29.35;18.95;;;;;;;18.07;70.68;101901.59;4861400;29;20045;-87
2021/09/08 06:34:09;;;;;;;27.85;18.80;;;;;;;18.20;70.65;101898.97;4845850;29;20045;-87
2021/09/08 06:36:34;;;;;;;26.98;18.83;;;;;;;18.35;70.46;101902.41;4862280;29;20041;-87
2021/09/08 06:38:59;;;;;;;26.08;18.83;;;;;;;18.37;70.44;101905.81;4865161;29;20062;-88
2021/09/08 06:41:25;;;;;;;28.58;19.50;;;;;;;18.45;70.05;101899.94;4867046;29;20025;-86
2021/09/08 06:43:50;;;;;;;24.88;17.40;;;;;;;18.44;70.27;101898.22;4847449;29;20037;-86
2021/09/08 06:46:16;;;;;;;27.85;18.23;;;;;;;18.61;69.75;101891.69;4852167;29;20030;-85
2021/09/08 06:48:42;;;;;;;24.67;18.00;;;;;;;18.66;70.08;101894.03;4838214;29;20124;-85
2021/09/08 06:51:07;;;;;;;25.80;18.67;;;;;;;18.87;69.26;101898.81;4872782;29;20108;-84
2021/09/08 06:53:33;;;;;;;27.05;18.55;;;;;;;18.92;69.13;101897.50;4849906;29;20033;-84
2021/09/08 06:55:58;;;;;;;28.85;18.63;;;;;;;18.89;69.18;101894.22;4860981;29;20045;-83
2021/09/08 06:58:24;;;;;;;28.80;19.13;;;;;;;18.99;68.82;101884.53;4837540;29;20033;-84
2021/09/08 07:00:51;;;;;;;24.75;18.10;;;;;;;19.15;68.68;101892.34;4866126;29;20057;-83
2021/09/08 07:03:16;;;;;;;28.88;18.83;;;;;;;19.29;68.00;101887.78;4879899;29;20013;-84
2021/09/08 07:05:42;;;;;;;25.13;18.77;;;;;;;19.29;68.18;101893.16;4883701;29;20123;-85
2021/09/08 07:08:09;;;;;;;26.58;18.35;;;;;;;19.27;68.09;101890.59;4884468;29;20089;-83
2021/09/08 07:10:35;;;;;;;28.00;18.42;;;;;;;19.34;68.08;101882.09;4868172;29;20485;-84
2021/09/08 07:13:00;;;;;;;24.58;17.95;;;;;;;19.47;67.52;101882.03;4860972;29;20089;-84
2021/09/08 07:15:26;;;;;;;25.10;18.55;;;;;;;19.49;67.48;101880.94;4874507;29;20048;-85
2021/09/08 07:17:51;;;;;;;27.00;19.15;;;;;;;19.67;66.98;101881.38;4879032;29;20100;-82
2021/09/08 07:20:17;;;;;;;26.55;18.85;;;;;;;19.66;66.92;101882.34;4859598;29;20029;-85
2021/09/08 07:22:42;;;;;;;23.20;17.63;;;;;;;19.42;67.90;101879.72;4860305;29;20033;-84
2021/09/08 07:25:08;;;;;;;25.00;16.70;;;;;;;19.84;66.77;101873.88;4860500;29;20026;-84
2021/09/08 07:27:34;;;;;;;23.77;17.10;;;;;;;19.95;66.21;101881.13;4860795;29;20116;-85
2021/09/08 07:29:59;;;;;;;23.83;18.02;;;;;;;20.04;66.38;101871.50;4860721;29;20033;-84
2021/09/08 07:32:25;;;;;;;27.45;17.90;;;;;;;20.06;66.01;101869.56;4860869;29;20037;-84
2021/09/08 07:34:50;;;;;;;28.98;18.42;;;;;;;19.95;66.20;101867.69;4875178;29;20121;-85
2021/09/08 07:37:16;;;;;;;27.13;18.05;;;;;;;20.07;65.88;101865.91;4866436;29;20080;-84
2021/09/08 07:39:42;;;;;;;25.00;17.92;;;;;;;20.35;65.29;101865.59;4862483;29;20045;-85
2021/09/08 07:42:07;;;;;;;24.35;17.85;;;;;;;20.40;65.39;101860.69;4860615;29;20403;-83
2021/09/08 07:44:33;;;;;;;24.40;17.23;;;;;;;20.38;65.55;101868.03;4859433;29;20401;-84
2021/09/08 07:46:58;;;;;;;26.17;16.75;;;;;;;20.44;64.90;101856.81;4861869;29;20036;-83
2021/09/08 07:49:24;;;;;;;25.35;17.80;;;;;;;20.70;64.34;101859.22;4861535;29;20058;-85
2021/09/08 07:51:49;;;;;;;23.52;17.08;;;;;;;20.67;65.00;101854.09;4860479;29;20033;-83
2021/09/08 07:54:14;;;;;;;25.75;16.42;;;;;;;20.71;64.76;101862.78;4860492;29;20029;-86
2021/09/08 07:56:40;;;;;;;25.50;17.25;;;;;;;20.93;64.69;101855.69;4860607;29;20029;-84
2021/09/08 07:59:05;;;;;;;24.08;17.30;;;;;;;20.86;64.81;101858.00;4860659;29;20084;-86
2021/09/08 08:01:33;;;;;;;24.55;17.50;;;;;;;20.83;64.46;101852.84;4868293;29;20034;-88
2021/09/08 08:03:59;;;;;;;24.60;17.58;;;;;;;20.88;64.91;101859.56;4852784;29;20040;-84
2021/09/08 08:06:25;;;;;;;26.08;17.95;;;;;;;21.14;64.66;101859.31;4858991;29;20609;-87
2021/09/08 08:08:50;;;;;;;26.33;17.27;;;;;;;21.41;63.67;101862.53;4861312;29;20296;-84
2021/09/08 08:11:16;;;;;;;24.35;17.23;;;;;;;21.32;61.90;101856.06;4859781;29;20029;-86
2021/09/08 08:13:41;;;;;;;24.08;17.15;;;;;;;21.27;61.36;101858.28;4861261;29;20462;-83
2021/09/08 08:16:07;;;;;;;22.67;16.67;;;;;;;21.65;61.20;101858.75;4859259;29;20030;-75
2021/09/08 08:18:32;;;;;;;24.95;17.05;;;;;;;21.76;60.66;101847.06;4859841;29;20025;-76
2021/09/08 08:20:58;;;;;;;24.58;16.98;;;;;;;21.77;60.02;101844.28;4859083;29;20087;-76
2021/09/08 08:23:23;;;;;;;23.55;16.88;;;;;;;21.81;60.26;101854.78;4860109;29;20033;-76
2021/09/08 08:25:49;;;;;;;21.65;15.70;;;;;;;21.91;59.82;101844.94;4859794;29;20030;-76
2021/09/08 08:28:14;;;;;;;23.83;16.35;;;;;;;21.97;59.91;101846.22;4862118;29;20088;-76
2021/09/08 08:30:40;;;;;;;22.00;16.13;;;;;;;22.19;58.96;101842.53;4861848;29;20139;-75
2021/09/08 08:33:05;;;;;;;22.77;16.15;;;;;;;22.33;59.38;101846.72;4861726;29;20473;-76
2021/09/08 08:35:32;;;;;;;23.70;15.85;;;;;;;22.15;59.52;101847.31;4877781;24;20057;-73
2021/09/08 08:37:57;;;;;;;23.98;17.10;;;;;;;22.47;58.98;101839.22;4879958;29;20076;-77
2021/09/08 08:40:23;;;;;;;25.92;16.75;;;;;;;22.27;58.89;101848.09;4880883;29;20048;-74
2021/09/08 08:42:49;;;;;;;21.63;16.17;;;;;;;22.40;58.40;101849.72;4880880;29;20033;-76
2021/09/08 08:45:14;;;;;;;22.08;15.77;;;;;;;22.54;57.89;101845.81;4882030;29;20412;-80
2021/09/08 08:47:40;;;;;;;22.92;16.50;;;;;;;22.58;58.19;101846.38;4881065;29;20032;-77
2021/09/08 08:50:11;;;;;;;22.63;15.32;;;;;;;22.86;57.92;101852.03;4880662;29;20405;-76
2021/09/08 08:52:37;;;;;;;23.70;15.50;;;;;;;22.93;57.07;101837.00;4895770;29;20472;-78
2021/09/08 08:55:03;;;;;;;24.08;16.25;;;;;;;22.85;57.22;101837.69;4881507;29;20064;-77
2021/09/08 08:57:29;;;;;;;24.02;16.17;;;;;;;23.12;57.81;101838.88;4883368;29;20029;-74
2021/09/08 08:59:54;;;;;;;21.35;16.25;;;;;;;23.17;57.38;101840.28;4882539;29;20040;-75
2021/09/08 09:02:30;;;;;;;26.80;16.27;;;;;;;23.28;56.95;101838.28;4884813;29;20028;-77
2021/09/08 09:04:57;;;;;;;23.10;16.48;;;;;;;23.22;56.75;101833.47;4901967;29;20041;-75
2021/09/08 09:07:25;;;;;;;25.20;16.65;;;;;;;23.65;56.44;101846.69;4899238;29;20028;-79
2021/09/08 09:09:58;;;;;;;24.50;16.50;;;;;;;23.76;55.27;101843.00;4874182;29;20033;-79
2021/09/08 09:12:26;;;;;;;22.13;16.13;;;;;;;23.67;54.67;101841.16;4884451;29;20037;-75
2021/09/08 09:14:55;;;;;;;24.20;16.00;;;;;;;23.69;54.87;101839.19;4882475;29;20082;-73
2021/09/08 09:17:21;;;;;;;24.05;15.65;;;;;;;24.01;53.79;101838.81;4865914;29;20116;-77
2021/09/08 09:19:48;;;;;;;23.48;16.20;;;;;;;23.52;55.19;101830.78;4883319;29;20033;-76
2021/09/08 09:22:15;;;;;;;21.80;16.25;;;;;;;24.11;54.06;101832.53;4866771;29;20093;-72
2021/09/08 09:24:40;;;;;;;23.35;16.23;;;;;;;24.34;53.16;101834.88;4881825;29;20025;-77
2021/09/08 09:27:10;;;;;;;22.85;15.45;;;;;;;24.37;53.38;101831.88;4901723;29;20387;-77
2021/09/08 09:29:35;;;;;;;20.92;15.25;;;;;;;24.51;53.57;101830.53;4894079;29;20033;-75
2021/09/08 09:32:04;;;;;;;20.98;15.27;;;;;;;24.58;53.49;101828.97;4884917;29;20130;-76
2021/09/08 09:34:30;;;;;;;22.67;14.77;;;;;;;24.83;52.82;101834.66;4900474;29;20325;-75
2021/09/08 09:36:57;;;;;;;22.25;15.93;;;;;;;24.86;51.82;101837.03;4900160;29;20040;-75
2021/09/08 09:39:27;;;;;;;22.65;14.95;;;;;;;25.26;51.60;101839.47;4867582;29;20040;-74
2021/09/08 09:41:52;;;;;;;21.27;15.93;;;;;;;25.63;49.52;101843.03;4899378;29;20487;-74
2021/09/08 09:44:18;;;;;;;20.23;15.55;;;;;;;26.02;48.52;101825.53;4899519;29;20037;-75
2021/09/08 09:46:45;;;;;;;19.15;14.88;;;;;;;27.26;44.62;101828.84;4898765;29;20032;-73
2021/09/08 09:49:11;;;;;;;20.88;15.23;;;;;;;27.96;43.08;101822.00;4882307;29;20123;-74
2021/09/08 09:51:37;;;;;;;18.48;14.63;;;;;;;28.64;42.27;101826.19;4899234;29;20115;-73
2021/09/08 09:54:02;;;;;;;20.58;15.48;;;;;;;29.16;41.28;101821.13;4899439;29;20037;-73
2021/09/08 09:56:28;;;;;;;23.25;15.60;;;;;;;29.30;40.85;101819.47;4899042;29;20380;-75
2021/09/08 09:58:56;;;;;;;19.60;15.30;;;;;;;29.78;39.52;101814.78;4882561;29;20044;-74
2021/09/08 10:01:21;;;;;;;19.73;14.45;;;;;;;30.06;39.47;101814.16;4882323;29;20468;-72
2021/09/08 10:03:47;;;;;;;20.13;14.73;;;;;;;30.03;39.52;101809.06;4881984;29;20384;-72
2021/09/08 10:06:13;;;;;;;22.75;16.05;;;;;;;30.08;38.43;101804.72;4898707;29;20040;-73
2021/09/08 10:08:46;;;;;;;20.88;15.10;;;;;;;30.59;38.60;101811.25;4881555;29;20036;-76
2021/09/08 10:11:12;;;;;;;20.48;14.77;;;;;;;31.33;36.79;101813.88;4852764;29;20047;-76
2021/09/08 10:13:57;;;;;;;19.33;15.20;;;;;;;30.22;38.56;101810.38;4867893;29;20031;-75
2021/09/08 10:16:23;;;;;;;18.33;14.80;;;;;;;30.04;38.66;101805.28;4900167;29;20029;-78
2021/09/08 10:18:49;;;;;;;19.40;15.02;;;;;;;30.56;38.50;101792.53;4899113;29;20043;-76
2021/09/08 10:21:18;;;;;;;17.70;14.05;;;;;;;29.99;38.76;101796.81;4898622;29;20745;-78
2021/09/08 10:23:45;;;;;;;20.65;13.73;;;;;;;30.38;37.63;101786.66;4898271;29;20033;-77
2021/09/08 10:26:16;;;;;;;17.20;12.77;;;;;;;29.94;37.01;101790.06;4898441;29;20031;-77
2021/09/08 10:28:42;;;;;;;17.90;12.38;;;;;;;30.42;36.51;101787.97;4881619;29;20408;-78
2021/09/08 10:31:08;;;;;;;18.92;13.00;;;;;;;30.65;36.94;101792.41;4881233;29;20041;-76
2021/09/08 10:33:35;;;;;;;18.65;12.35;;;;;;;30.44;37.44;101778.56;4881169;29;20037;-77
2021/09/08 10:36:01;;;;;;;14.93;11.93;;;;;;;30.46;36.56;101781.94;4882063;29;20063;-82
2021/09/08 10:38:29;;;;;;;15.13;12.07;;;;;;;30.30;36.82;101776.69;4885430;29;20052;-82
2021/09/08 10:40:56;;;;;;;16.58;12.15;;;;;;;29.44;38.43;101765.19;4881542;29;20041;-83
2021/09/08 10:43:29;;;;;;;14.70;12.10;;;;;;;29.91;38.21;101770.50;4898503;29;20128;-79
2021/09/08 10:45:54;;;;;;;15.80;12.38;;;;;;;29.81;38.47;101762.63;4901122;29;20063;-78
2021/09/08 10:48:39;;;;;;;14.02;11.63;;;;;;;29.64;38.93;101762.81;4898521;29;20024;-81
2021/09/08 10:51:06;;;;;;;16.35;13.38;;;;;;;29.61;39.61;101757.72;4909714;29;20032;-77
2021/09/08 10:53:32;;;;;;;19.17;13.10;;;;;;;29.23;39.64;101750.41;4916602;29;20028;-77
2021/09/08 10:55:58;;;;;;;19.35;13.90;;;;;;;28.98;40.42;101745.19;4916748;29;20087;-78
2021/09/08 10:58:23;;;;;;;14.93;11.48;;;;;;;28.65;41.69;101742.69;4899945;29;20028;-78
2021/09/08 11:00:49;;;;;;;15.25;11.70;;;;;;;28.93;41.33;101740.25;4916949;29;20038;-77
2021/09/08 11:03:15;;;;;;;17.92;12.25;;;;;;;28.54;41.77;101731.19;4871069;29;20028;-77
2021/09/08 11:05:52;;;;;;;16.17;12.57;;;;;;;27.83;42.73;101730.16;4897897;29;20037;-78
2021/09/08 11:08:22;;;;;;;15.82;11.85;;;;;;;28.11;42.30;101734.28;4898107;29;20383;-78